La Suprema — IBIL — position and weather

sailwx.info

Track history (hours):
 
Tides and Currents Weather Stations Pressure Air Temp Water Temp Dewpoint Dewpoint Depression Visibility Wind Speed Wind Dir Waves Ship Positions

La Suprema

Last reported at 2015-Jul-27 20:33 UTC. Time now 2015-Jul-28 05:53 UTC.
Position N 38°32' E 013°09'.

Length 211 m; draft 7.1 m.

Type: Passenger vessel. MMSI: 247083700.

Date/timePositionNaut miles runAvg speedWind from/ knotsBaromVisibWave heightAir tempDewpointWater temp
2015-Jul-27 20:33N 38°32' E 013°09'2323.5
2015-Jul-27 19:34N 38°13' E 013°24'5 5.2
2015-Jul-27 18:33N 38°08' E 013°22'0 0.0
2015-Jul-27 17:33N 38°08' E 013°22'0 0.0
2015-Jul-27 16:33N 38°08' E 013°22'0 0.0
2015-Jul-27 15:33N 38°08' E 013°22'0 0.0
2015-Jul-27 14:33N 38°08' E 013°22'8 8.4
2015-Jul-27 13:33N 38°16' E 013°22'41723.2
2015-Jul-26 19:34N 44°23' E 008°57'2 2.0
2015-Jul-26 18:32N 44°25' E 008°55'0 0.0
2015-Jul-26 17:29N 44°25' E 008°55'0 0.0
2015-Jul-26 16:32N 44°25' E 008°55'0 0.0
2015-Jul-26 15:31N 44°25' E 008°55'0 0.0
2015-Jul-26 14:28N 44°25' E 008°55'1213.2
2015-Jul-26 13:34N 44°14' E 009°04'40323.3
2015-Jul-25 20:13N 38°19' E 013°19'1218.9
2015-Jul-25 19:33N 38°07' E 013°23'1 1.0
2015-Jul-25 18:25N 38°08' E 013°22'0 0.0
2015-Jul-25 17:19N 38°08' E 013°22'0 0.0
2015-Jul-25 16:27N 38°08' E 013°22'0 0.0
2015-Jul-25 15:24N 38°08' E 013°22'1 1.8
2015-Jul-25 14:33N 38°08' E 013°24'35023.3
2015-Jul-24 23:33N 43°10' E 009°32'2323.2
2015-Jul-24 22:34N 43°32' E 009°22'2323.2
2015-Jul-24 21:34N 43°54' E 009°11'2323.4
2015-Jul-24 20:34N 44°16' E 009°00'10 9.4
2015-Jul-24 19:33N 44°25' E 008°55'0 0.0
2015-Jul-24 18:29N 44°25' E 008°55'0 0.0
2015-Jul-24 17:32N 44°25' E 008°55'0 0.0
2015-Jul-24 16:31N 44°25' E 008°55'0 0.0
2015-Jul-24 15:28N 44°25' E 008°55'2 1.8
2015-Jul-24 14:33N 44°23' E 008°57'2019.5
2015-Jul-24 13:33N 44°07' E 009°11'2222.4
2015-Jul-24 12:33N 43°47' E 009°26'2222.5
2015-Jul-24 11:33N 43°28' E 009°42'2222.3
2015-Jul-24 10:33N 43°09' E 009°57'4821.7
2015-Jul-24 08:22N 42°25' E 010°24'2122.5
2015-Jul-24 07:25N 42°07' E 010°38'1922.4
2015-Jul-24 06:33N 41°50' E 010°50'2222.4
2015-Jul-24 05:33N 41°30' E 011°05'22522.5
2015-Jul-23 19:33N 38°12' E 013°24'4 4.0
2015-Jul-23 18:27N 38°08' E 013°22'0 0.0
2015-Jul-23 17:14N 38°08' E 013°22'0 0.0
2015-Jul-23 15:31N 38°08' E 013°22'2 1.6
2015-Jul-23 14:33N 38°08' E 013°24'14623.5
2015-Jul-23 08:21N 40°12' E 011°46'12423.5
2015-Jul-23 03:04N 41°57' E 010°18'1223.2
2015-Jul-23 02:33N 42°08' E 010°10'2323.5
2015-Jul-23 01:33N 42°28' E 009°54'2722.7
2015-Jul-23 00:21N 42°54' E 009°42'1923.2
2015-Jul-22 23:33N 43°11' E 009°32'2323.2
2015-Jul-22 22:34N 43°33' E 009°22'2323.3
2015-Jul-22 21:34N 43°55' E 009°11'2423.5
2015-Jul-22 20:33N 44°17' E 008°60'8 8.4
2015-Jul-22 19:33N 44°25' E 008°55'0 0.0
2015-Jul-22 18:33N 44°25' E 008°55'0 0.0
2015-Jul-22 17:32N 44°25' E 008°55'0 0.0
2015-Jul-22 16:32N 44°25' E 008°55'0 0.0
2015-Jul-22 15:31N 44°25' E 008°55'0 0.1
2015-Jul-22 14:29N 44°25' E 008°55'1313.9
2015-Jul-22 13:34N 44°14' E 009°05'2423.9
2015-Jul-22 12:34N 43°53' E 009°21'2423.8
2015-Jul-22 11:34N 43°32' E 009°37'2323.4
2015-Jul-22 10:33N 43°12' E 009°53'2323.0
2015-Jul-22 09:34N 42°50' E 010°02'2422.7
2015-Jul-22 08:31N 42°30' E 010°19'2223.2
2015-Jul-22 07:33N 42°11' E 010°35'3023.5
2015-Jul-22 06:16N 41°44' E 010°54'1723.5
2015-Jul-22 05:33N 41°29' E 011°05'2323.6
2015-Jul-22 04:34N 41°09' E 011°20'2723.7
2015-Jul-22 03:26N 40°45' E 011°36'5523.8
2015-Jul-22 01:08N 39°57' E 012°09'8623.4
2015-Jul-21 21:27N 38°41' E 013°02'2123.6
2015-Jul-21 20:33N 38°23' E 013°16'1513.9
2015-Jul-21 19:26N 38°08' E 013°22'0 0.0
2015-Jul-21 18:29N 38°08' E 013°22'0 0.0
2015-Jul-21 17:28N 38°08' E 013°22'0 0.0
2015-Jul-21 16:19N 38°08' E 013°22'0 0.0
2015-Jul-21 15:30N 38°08' E 013°22'1 1.3
2015-Jul-21 14:33N 38°07' E 013°23'2220.6
2015-Jul-21 13:29N 38°28' E 013°12'2223.8
2015-Jul-21 12:33N 38°46' E 012°57'2923.9
2015-Jul-21 11:20N 39°11' E 012°37'1923.8
2015-Jul-21 10:33N 39°26' E 012°24'4823.8
2015-Jul-21 08:33N 40°07' E 011°51'4923.4
2015-Jul-21 06:27N 40°49' E 011°17'2123.4
2015-Jul-21 05:33N 41°06' E 011°02'7023.3
2015-Jul-21 02:33N 42°05' E 010°11'2423.3
2015-Jul-21 01:31N 42°25' E 009°53'2223.3
2015-Jul-21 00:33N 42°47' E 009°44'2323.4
2015-Jul-20 23:34N 43°09' E 009°34'2323.4
2015-Jul-20 22:34N 43°31' E 009°23'2323.5
2015-Jul-20 21:34N 43°53' E 009°11'2423.6
2015-Jul-20 20:33N 44°15' E 009°00'10 9.9
2015-Jul-20 19:31N 44°25' E 008°55'0 0.0
2015-Jul-20 18:27N 44°25' E 008°55'0 0.0
2015-Jul-20 17:33N 44°25' E 008°55'0 0.0
2015-Jul-20 16:30N 44°25' E 008°55'0 0.0
2015-Jul-20 15:32N 44°25' E 008°55'2 1.8
2015-Jul-20 14:33N 44°23' E 008°57'6822.0
2015-Jul-20 11:30N 43°25' E 009°44'2122.4
2015-Jul-20 10:33N 43°07' E 009°58'4321.6
2015-Jul-20 08:34N 42°27' E 010°22'2322.5
2015-Jul-20 07:33N 42°08' E 010°37'2322.8
2015-Jul-20 06:33N 41°48' E 010°52'2322.7
2015-Jul-20 05:34N 41°28' E 011°06'2322.7
2015-Jul-20 04:33N 41°08' E 011°21'2322.7
2015-Jul-20 03:33N 40°48' E 011°34'2322.7
2015-Jul-20 02:34N 40°28' E 011°48'2322.6
2015-Jul-20 01:33N 40°07' E 012°01'2322.5
2015-Jul-20 00:31N 39°47' E 012°17'2222.6
2015-Jul-19 23:33N 39°28' E 012°29'2322.6
2015-Jul-19 22:33N 39°08' E 012°43'2322.6
2015-Jul-19 21:33N 38°48' E 012°57'2922.8
2015-Jul-19 20:17N 38°23' E 013°16'1622.0
2015-Jul-19 19:33N 38°08' E 013°25'2 1.0
2015-Jul-19 17:16N 38°08' E 013°22'0 0.0
2015-Jul-19 16:31N 38°08' E 013°22'0 0.0
2015-Jul-19 15:33N 38°08' E 013°22'3 2.6
2015-Jul-19 14:33N 38°10' E 013°24'2322.1
2015-Jul-19 13:32N 38°30' E 013°10'2223.0
2015-Jul-19 12:33N 38°49' E 012°55'2323.2
2015-Jul-19 11:34N 39°08' E 012°39'4723.4
2015-Jul-19 09:33N 39°48' E 012°07'2323.3
2015-Jul-19 08:33N 40°08' E 011°50'5523.2
2015-Jul-19 06:12N 40°54' E 011°12'1523.0
2015-Jul-19 05:33N 41°06' E 011°02'2322.7
2015-Jul-19 04:32N 41°26' E 010°45'9122.8
2015-Jul-19 00:34N 42°45' E 009°45'2622.8
2015-Jul-18 23:26N 43°09' E 009°33'2023.0
2015-Jul-18 22:34N 43°28' E 009°24'2323.1
2015-Jul-18 21:34N 43°50' E 009°13'2323.1
2015-Jul-18 20:34N 44°11' E 009°01'1413.9
2015-Jul-18 19:34N 44°25' E 008°55'0 0.0
2015-Jul-18 18:33N 44°25' E 008°55'0 0.0
2015-Jul-18 17:34N 44°25' E 008°55'0 0.0
2015-Jul-18 16:33N 44°25' E 008°55'0 0.0
2015-Jul-18 15:33N 44°25' E 008°55'0 0.0
2015-Jul-18 14:34N 44°25' E 008°55'1312.7
2015-Jul-18 13:34N 44°14' E 009°05'2322.9
2015-Jul-18 12:34N 43°54' E 009°20'2322.9
2015-Jul-18 11:34N 43°34' E 009°36'2322.6
2015-Jul-18 10:34N 43°15' E 009°52'2322.5
2015-Jul-18 09:33N 42°53' E 010°02'2522.1
2015-Jul-18 08:25N 42°31' E 010°18'1922.7
2015-Jul-18 07:34N 42°15' E 010°32'2722.9
2015-Jul-18 06:23N 41°51' E 010°49'1922.9
2015-Jul-18 05:34N 41°34' E 011°01'2323.1
2015-Jul-18 04:33N 41°14' E 011°15'2323.2
2015-Jul-18 03:34N 40°54' E 011°30'2323.2
2015-Jul-18 02:33N 40°33' E 011°44'2322.9
2015-Jul-18 01:33N 40°12' E 011°58'4622.6
2015-Jul-17 23:31N 39°32' E 012°26'2222.8
2015-Jul-17 22:33N 39°13' E 012°40'2822.9
2015-Jul-17 21:21N 38°48' E 012°57'  
Track history (hours):
 
Tides and Currents Weather Stations Pressure Air Temp Water Temp Dewpoint Dewpoint Depression Visibility Wind Speed Wind Dir Waves Ship Positions

La Suprema

Last reported at 2015-Jul-27 20:33 UTC. Time now 2015-Jul-28 05:53 UTC.
Position N 38°32' E 013°09'.

Length 211 m; draft 7.1 m.

Type: Passenger vessel. MMSI: 247083700.

Date/timePositionNaut miles runAvg speedWind from/ knotsBaromVisibWave heightAir tempDewpointWater temp
2015-Jul-27 20:33N 38°32' E 013°09'2323.5
2015-Jul-27 19:34N 38°13' E 013°24'5 5.2
2015-Jul-27 18:33N 38°08' E 013°22'0 0.0
2015-Jul-27 17:33N 38°08' E 013°22'0 0.0
2015-Jul-27 16:33N 38°08' E 013°22'0 0.0
2015-Jul-27 15:33N 38°08' E 013°22'0 0.0
2015-Jul-27 14:33N 38°08' E 013°22'8 8.4
2015-Jul-27 13:33N 38°16' E 013°22'41723.2
2015-Jul-26 19:34N 44°23' E 008°57'2 2.0
2015-Jul-26 18:32N 44°25' E 008°55'0 0.0
2015-Jul-26 17:29N 44°25' E 008°55'0 0.0
2015-Jul-26 16:32N 44°25' E 008°55'0 0.0
2015-Jul-26 15:31N 44°25' E 008°55'0 0.0
2015-Jul-26 14:28N 44°25' E 008°55'1213.2
2015-Jul-26 13:34N 44°14' E 009°04'40323.3
2015-Jul-25 20:13N 38°19' E 013°19'1218.9
2015-Jul-25 19:33N 38°07' E 013°23'1 1.0
2015-Jul-25 18:25N 38°08' E 013°22'0 0.0
2015-Jul-25 17:19N 38°08' E 013°22'0 0.0
2015-Jul-25 16:27N 38°08' E 013°22'0 0.0
2015-Jul-25 15:24N 38°08' E 013°22'1 1.8
2015-Jul-25 14:33N 38°08' E 013°24'35023.3
2015-Jul-24 23:33N 43°10' E 009°32'2323.2
2015-Jul-24 22:34N 43°32' E 009°22'2323.2
2015-Jul-24 21:34N 43°54' E 009°11'2323.4
2015-Jul-24 20:34N 44°16' E 009°00'10 9.4
2015-Jul-24 19:33N 44°25' E 008°55'0 0.0
2015-Jul-24 18:29N 44°25' E 008°55'0 0.0
2015-Jul-24 17:32N 44°25' E 008°55'0 0.0
2015-Jul-24 16:31N 44°25' E 008°55'0 0.0
2015-Jul-24 15:28N 44°25' E 008°55'2 1.8
2015-Jul-24 14:33N 44°23' E 008°57'2019.5
2015-Jul-24 13:33N 44°07' E 009°11'2222.4
2015-Jul-24 12:33N 43°47' E 009°26'2222.5
2015-Jul-24 11:33N 43°28' E 009°42'2222.3
2015-Jul-24 10:33N 43°09' E 009°57'4821.7
2015-Jul-24 08:22N 42°25' E 010°24'2122.5
2015-Jul-24 07:25N 42°07' E 010°38'1922.4
2015-Jul-24 06:33N 41°50' E 010°50'2222.4
2015-Jul-24 05:33N 41°30' E 011°05'22522.5
2015-Jul-23 19:33N 38°12' E 013°24'4 4.0
2015-Jul-23 18:27N 38°08' E 013°22'0 0.0
2015-Jul-23 17:14N 38°08' E 013°22'0 0.0
2015-Jul-23 15:31N 38°08' E 013°22'2 1.6
2015-Jul-23 14:33N 38°08' E 013°24'14623.5
2015-Jul-23 08:21N 40°12' E 011°46'12423.5
2015-Jul-23 03:04N 41°57' E 010°18'1223.2
2015-Jul-23 02:33N 42°08' E 010°10'2323.5
2015-Jul-23 01:33N 42°28' E 009°54'2722.7
2015-Jul-23 00:21N 42°54' E 009°42'1923.2
2015-Jul-22 23:33N 43°11' E 009°32'2323.2
2015-Jul-22 22:34N 43°33' E 009°22'2323.3
2015-Jul-22 21:34N 43°55' E 009°11'2423.5
2015-Jul-22 20:33N 44°17' E 008°60'8 8.4
2015-Jul-22 19:33N 44°25' E 008°55'0 0.0
2015-Jul-22 18:33N 44°25' E 008°55'0 0.0
2015-Jul-22 17:32N 44°25' E 008°55'0 0.0
2015-Jul-22 16:32N 44°25' E 008°55'0 0.0
2015-Jul-22 15:31N 44°25' E 008°55'0 0.1
2015-Jul-22 14:29N 44°25' E 008°55'1313.9
2015-Jul-22 13:34N 44°14' E 009°05'2423.9
2015-Jul-22 12:34N 43°53' E 009°21'2423.8
2015-Jul-22 11:34N 43°32' E 009°37'2323.4
2015-Jul-22 10:33N 43°12' E 009°53'2323.0
2015-Jul-22 09:34N 42°50' E 010°02'2422.7
2015-Jul-22 08:31N 42°30' E 010°19'2223.2
2015-Jul-22 07:33N 42°11' E 010°35'3023.5
2015-Jul-22 06:16N 41°44' E 010°54'1723.5
2015-Jul-22 05:33N 41°29' E 011°05'2323.6
2015-Jul-22 04:34N 41°09' E 011°20'2723.7
2015-Jul-22 03:26N 40°45' E 011°36'5523.8
2015-Jul-22 01:08N 39°57' E 012°09'8623.4
2015-Jul-21 21:27N 38°41' E 013°02'2123.6
2015-Jul-21 20:33N 38°23' E 013°16'1513.9
2015-Jul-21 19:26N 38°08' E 013°22'0 0.0
2015-Jul-21 18:29N 38°08' E 013°22'0 0.0
2015-Jul-21 17:28N 38°08' E 013°22'0 0.0
2015-Jul-21 16:19N 38°08' E 013°22'0 0.0
2015-Jul-21 15:30N 38°08' E 013°22'1 1.3
2015-Jul-21 14:33N 38°07' E 013°23'2220.6
2015-Jul-21 13:29N 38°28' E 013°12'2223.8
2015-Jul-21 12:33N 38°46' E 012°57'2923.9
2015-Jul-21 11:20N 39°11' E 012°37'1923.8
2015-Jul-21 10:33N 39°26' E 012°24'4823.8
2015-Jul-21 08:33N 40°07' E 011°51'4923.4
2015-Jul-21 06:27N 40°49' E 011°17'2123.4
2015-Jul-21 05:33N 41°06' E 011°02'7023.3
2015-Jul-21 02:33N 42°05' E 010°11'2423.3
2015-Jul-21 01:31N 42°25' E 009°53'2223.3
2015-Jul-21 00:33N 42°47' E 009°44'2323.4
2015-Jul-20 23:34N 43°09' E 009°34'2323.4
2015-Jul-20 22:34N 43°31' E 009°23'2323.5
2015-Jul-20 21:34N 43°53' E 009°11'2423.6
2015-Jul-20 20:33N 44°15' E 009°00'10 9.9
2015-Jul-20 19:31N 44°25' E 008°55'0 0.0
2015-Jul-20 18:27N 44°25' E 008°55'0 0.0
2015-Jul-20 17:33N 44°25' E 008°55'0 0.0
2015-Jul-20 16:30N 44°25' E 008°55'0 0.0
2015-Jul-20 15:32N 44°25' E 008°55'2 1.8
2015-Jul-20 14:33N 44°23' E 008°57'6822.0
2015-Jul-20 11:30N 43°25' E 009°44'2122.4
2015-Jul-20 10:33N 43°07' E 009°58'4321.6
2015-Jul-20 08:34N 42°27' E 010°22'2322.5
2015-Jul-20 07:33N 42°08' E 010°37'2322.8
2015-Jul-20 06:33N 41°48' E 010°52'2322.7
2015-Jul-20 05:34N 41°28' E 011°06'2322.7
2015-Jul-20 04:33N 41°08' E 011°21'2322.7
2015-Jul-20 03:33N 40°48' E 011°34'2322.7
2015-Jul-20 02:34N 40°28' E 011°48'2322.6
2015-Jul-20 01:33N 40°07' E 012°01'2322.5
2015-Jul-20 00:31N 39°47' E 012°17'2222.6
2015-Jul-19 23:33N 39°28' E 012°29'2322.6
2015-Jul-19 22:33N 39°08' E 012°43'2322.6
2015-Jul-19 21:33N 38°48' E 012°57'2922.8
2015-Jul-19 20:17N 38°23' E 013°16'1622.0
2015-Jul-19 19:33N 38°08' E 013°25'2 1.0
2015-Jul-19 17:16N 38°08' E 013°22'0 0.0
2015-Jul-19 16:31N 38°08' E 013°22'0 0.0
2015-Jul-19 15:33N 38°08' E 013°22'3 2.6
2015-Jul-19 14:33N 38°10' E 013°24'2322.1
2015-Jul-19 13:32N 38°30' E 013°10'2223.0
2015-Jul-19 12:33N 38°49' E 012°55'2323.2
2015-Jul-19 11:34N 39°08' E 012°39'4723.4
2015-Jul-19 09:33N 39°48' E 012°07'2323.3
2015-Jul-19 08:33N 40°08' E 011°50'5523.2
2015-Jul-19 06:12N 40°54' E 011°12'1523.0
2015-Jul-19 05:33N 41°06' E 011°02'2322.7
2015-Jul-19 04:32N 41°26' E 010°45'9122.8
2015-Jul-19 00:34N 42°45' E 009°45'2622.8
2015-Jul-18 23:26N 43°09' E 009°33'2023.0
2015-Jul-18 22:34N 43°28' E 009°24'2323.1
2015-Jul-18 21:34N 43°50' E 009°13'2323.1
2015-Jul-18 20:34N 44°11' E 009°01'1413.9
2015-Jul-18 19:34N 44°25' E 008°55'0 0.0
2015-Jul-18 18:33N 44°25' E 008°55'0 0.0
2015-Jul-18 17:34N 44°25' E 008°55'0 0.0
2015-Jul-18 16:33N 44°25' E 008°55'0 0.0
2015-Jul-18 15:33N 44°25' E 008°55'0 0.0
2015-Jul-18 14:34N 44°25' E 008°55'1312.7
2015-Jul-18 13:34N 44°14' E 009°05'2322.9
2015-Jul-18 12:34N 43°54' E 009°20'2322.9
2015-Jul-18 11:34N 43°34' E 009°36'2322.6
2015-Jul-18 10:34N 43°15' E 009°52'2322.5
2015-Jul-18 09:33N 42°53' E 010°02'2522.1
2015-Jul-18 08:25N 42°31' E 010°18'1922.7
2015-Jul-18 07:34N 42°15' E 010°32'2722.9
2015-Jul-18 06:23N 41°51' E 010°49'1922.9
2015-Jul-18 05:34N 41°34' E 011°01'2323.1
2015-Jul-18 04:33N 41°14' E 011°15'2323.2
2015-Jul-18 03:34N 40°54' E 011°30'2323.2
2015-Jul-18 02:33N 40°33' E 011°44'2322.9
2015-Jul-18 01:33N 40°12' E 011°58'4622.6
2015-Jul-17 23:31N 39°32' E 012°26'2222.8
2015-Jul-17 22:33N 39°13' E 012°40'2822.9
2015-Jul-17 21:21N 38°48' E 012°57'  

Dump ship's entire track history